sensor_id;sensor_type;location;lat;lon;timestamp;temperature;humidity
19646;DHT22;9971;52.446;13.452;2024-01-16T00:01:07;8.60;99.90
19646;DHT22;9971;52.446;13.452;2024-01-16T00:06:10;9.60;99.90
19646;DHT22;9971;52.446;13.452;2024-01-16T00:11:12;10.60;97.30
19646;DHT22;9971;52.446;13.452;2024-01-16T00:16:14;11.40;94.50
19646;DHT22;9971;52.446;13.452;2024-01-16T00:21:16;12.00;92.10
19646;DHT22;9971;52.446;13.452;2024-01-16T00:26:20;12.70;90.70
19646;DHT22;9971;52.446;13.452;2024-01-16T00:31:21;13.20;88.70
19646;DHT22;9971;52.446;13.452;2024-01-16T00:36:24;13.60;87.00
19646;DHT22;9971;52.446;13.452;2024-01-16T00:41:26;14.10;85.90
19646;DHT22;9971;52.446;13.452;2024-01-16T00:46:28;14.40;84.60
19646;DHT22;9971;52.446;13.452;2024-01-16T00:51:31;14.80;83.10
19646;DHT22;9971;52.446;13.452;2024-01-16T00:56:33;15.00;81.20
19646;DHT22;9971;52.446;13.452;2024-01-16T01:01:37;15.30;79.20
19646;DHT22;9971;52.446;13.452;2024-01-16T01:06:37;15.50;77.90
19646;DHT22;9971;52.446;13.452;2024-01-16T01:11:40;15.70;76.70
19646;DHT22;9971;52.446;13.452;2024-01-16T01:16:42;16.00;75.80
19646;DHT22;9971;52.446;13.452;2024-01-16T01:21:45;16.10;73.90
19646;DHT22;9971;52.446;13.452;2024-01-16T01:26:47;16.30;74.30
19646;DHT22;9971;52.446;13.452;2024-01-16T01:31:50;16.50;75.20
19646;DHT22;9971;52.446;13.452;2024-01-16T01:36:52;16.60;74.70
19646;DHT22;9971;52.446;13.452;2024-01-16T01:41:54;16.70;72.70
19646;DHT22;9971;52.446;13.452;2024-01-16T01:46:56;16.90;71.50
19646;DHT22;9971;52.446;13.452;2024-01-16T01:51:59;17.00;70.00
19646;DHT22;9971;52.446;13.452;2024-01-16T01:57:01;17.10;68.40
19646;DHT22;9971;52.446;13.452;2024-01-16T02:02:03;17.20;67.70
19646;DHT22;9971;52.446;13.452;2024-01-16T02:07:05;17.30;66.40
19646;DHT22;9971;52.446;13.452;2024-01-16T02:12:08;17.40;65.20
19646;DHT22;9971;52.446;13.452;2024-01-16T02:17:10;17.50;64.30
19646;DHT22;9971;52.446;13.452;2024-01-16T02:22:14;17.60;62.40
19646;DHT22;9971;52.446;13.452;2024-01-16T02:27:14;17.70;61.90
19646;DHT22;9971;52.446;13.452;2024-01-16T02:32:17;17.70;61.00
19646;DHT22;9971;52.446;13.452;2024-01-16T02:37:19;17.70;60.70
19646;DHT22;9971;52.446;13.452;2024-01-16T02:42:22;17.80;59.90
19646;DHT22;9971;52.446;13.452;2024-01-16T02:47:24;17.90;59.00
19646;DHT22;9971;52.446;13.452;2024-01-16T02:52:27;18.00;58.40
19646;DHT22;9971;52.446;13.452;2024-01-16T02:57:29;18.00;58.00
19646;DHT22;9971;52.446;13.452;2024-01-16T03:02:32;18.10;58.00
19646;DHT22;9971;52.446;13.452;2024-01-16T03:07:34;18.10;57.90
19646;DHT22;9971;52.446;13.452;2024-01-16T03:12:37;18.20;57.10
19646;DHT22;9971;52.446;13.452;2024-01-16T03:17:40;18.20;56.80
19646;DHT22;9971;52.446;13.452;2024-01-16T03:22:42;18.30;56.00
19646;DHT22;9971;52.446;13.452;2024-01-16T03:27:44;18.30;56.10
19646;DHT22;9971;52.446;13.452;2024-01-16T03:32:47;18.30;56.00
19646;DHT22;9971;52.446;13.452;2024-01-16T03:37:49;18.40;55.90
19646;DHT22;9971;52.446;13.452;2024-01-16T03:42:52;18.40;55.10
19646;DHT22;9971;52.446;13.452;2024-01-16T03:47:54;18.40;54.80
19646;DHT22;9971;52.446;13.452;2024-01-16T03:52:57;18.40;55.00
19646;DHT22;9971;52.446;13.452;2024-01-16T03:57:59;18.40;55.30
19646;DHT22;9971;52.446;13.452;2024-01-16T04:03:02;18.40;54.10
19646;DHT22;9971;52.446;13.452;2024-01-16T04:08:04;18.40;54.50
19646;DHT22;9971;52.446;13.452;2024-01-16T04:13:07;18.50;54.70
19646;DHT22;9971;52.446;13.452;2024-01-16T04:18:09;18.50;55.20
19646;DHT22;9971;52.446;13.452;2024-01-16T04:23:11;18.50;54.30
19646;DHT22;9971;52.446;13.452;2024-01-16T04:28:14;18.50;54.00
19646;DHT22;9971;52.446;13.452;2024-01-16T04:33:16;18.60;54.30
19646;DHT22;9971;52.446;13.452;2024-01-16T04:38:18;18.60;53.50
19646;DHT22;9971;52.446;13.452;2024-01-16T04:43:21;18.60;53.20
19646;DHT22;9971;52.446;13.452;2024-01-16T04:48:23;18.50;53.10
19646;DHT22;9971;52.446;13.452;2024-01-16T04:53:25;18.50;52.90
19646;DHT22;9971;52.446;13.452;2024-01-16T04:58:27;18.60;54.20
19646;DHT22;9971;52.446;13.452;2024-01-16T05:03:30;18.60;60.40
19646;DHT22;9971;52.446;13.452;2024-01-16T05:08:32;18.60;63.90
19646;DHT22;9971;52.446;13.452;2024-01-16T05:13:35;18.70;67.70
19646;DHT22;9971;52.446;13.452;2024-01-16T05:18:37;18.70;68.40
19646;DHT22;9971;52.446;13.452;2024-01-16T05:23:40;18.70;58.70
19646;DHT22;9971;52.446;13.452;2024-01-16T05:28:42;18.70;57.60
19646;DHT22;9971;52.446;13.452;2024-01-16T05:33:45;18.70;56.10
19646;DHT22;9971;52.446;13.452;2024-01-16T05:38:47;18.80;54.30
19646;DHT22;9971;52.446;13.452;2024-01-16T05:43:50;18.80;53.60
19646;DHT22;9971;52.446;13.452;2024-01-16T05:48:52;18.80;53.10
19646;DHT22;9971;52.446;13.452;2024-01-16T05:53:54;18.80;51.70
19646;DHT22;9971;52.446;13.452;2024-01-16T05:58:57;18.80;52.70
19646;DHT22;9971;52.446;13.452;2024-01-16T06:03:59;18.90;52.60
19646;DHT22;9971;52.446;13.452;2024-01-16T06:09:01;18.90;51.20
19646;DHT22;9971;52.446;13.452;2024-01-16T06:14:03;18.90;51.60
19646;DHT22;9971;52.446;13.452;2024-01-16T06:19:06;18.90;51.60
19646;DHT22;9971;52.446;13.452;2024-01-16T06:24:08;18.90;52.10
19646;DHT22;9971;52.446;13.452;2024-01-16T06:29:10;19.00;52.30
19646;DHT22;9971;52.446;13.452;2024-01-16T06:34:13;19.00;51.30
19646;DHT22;9971;52.446;13.452;2024-01-16T06:39:15;18.90;50.10
19646;DHT22;9971;52.446;13.452;2024-01-16T06:44:18;18.80;49.90
19646;DHT22;9971;52.446;13.452;2024-01-16T06:49:20;18.90;50.00
19646;DHT22;9971;52.446;13.452;2024-01-16T06:54:22;18.90;51.10
19646;DHT22;9971;52.446;13.452;2024-01-16T06:59:24;18.90;50.80
19646;DHT22;9971;52.446;13.452;2024-01-16T07:04:27;19.00;52.50
19646;DHT22;9971;52.446;13.452;2024-01-16T07:09:30;19.00;52.10
19646;DHT22;9971;52.446;13.452;2024-01-16T07:14:32;19.00;52.10
19646;DHT22;9971;52.446;13.452;2024-01-16T07:19:34;19.10;52.50
19646;DHT22;9971;52.446;13.452;2024-01-16T07:24:38;19.10;51.50
19646;DHT22;9971;52.446;13.452;2024-01-16T07:29:40;19.10;51.80
19646;DHT22;9971;52.446;13.452;2024-01-16T07:34:43;19.10;50.20
19646;DHT22;9971;52.446;13.452;2024-01-16T07:39:45;19.00;50.90
19646;DHT22;9971;52.446;13.452;2024-01-16T07:44:47;19.00;51.70
19646;DHT22;9971;52.446;13.452;2024-01-16T07:49:50;19.00;51.70
19646;DHT22;9971;52.446;13.452;2024-01-16T07:54:52;19.00;52.50
19646;DHT22;9971;52.446;13.452;2024-01-16T07:59:55;19.00;51.30
19646;DHT22;9971;52.446;13.452;2024-01-16T08:04:57;19.00;50.70
19646;DHT22;9971;52.446;13.452;2024-01-16T08:09:59;19.10;52.50
19646;DHT22;9971;52.446;13.452;2024-01-16T08:15:02;19.10;51.60
19646;DHT22;9971;52.446;13.452;2024-01-16T08:20:05;19.10;51.80
19646;DHT22;9971;52.446;13.452;2024-01-16T08:25:07;19.10;50.90
19646;DHT22;9971;52.446;13.452;2024-01-16T08:30:10;19.10;52.00
19646;DHT22;9971;52.446;13.452;2024-01-16T08:35:13;19.10;51.60
19646;DHT22;9971;52.446;13.452;2024-01-16T08:40:15;19.10;50.90
19646;DHT22;9971;52.446;13.452;2024-01-16T08:45:18;19.20;51.60
19646;DHT22;9971;52.446;13.452;2024-01-16T08:50:20;19.20;50.70
19646;DHT22;9971;52.446;13.452;2024-01-16T08:55:23;19.20;51.00
19646;DHT22;9971;52.446;13.452;2024-01-16T09:00:25;19.20;51.90
19646;DHT22;9971;52.446;13.452;2024-01-16T09:05:28;19.20;52.00
19646;DHT22;9971;52.446;13.452;2024-01-16T09:10:30;19.20;52.60
19646;DHT22;9971;52.446;13.452;2024-01-16T09:15:33;19.30;52.10
19646;DHT22;9971;52.446;13.452;2024-01-16T09:20:35;19.30;54.00
19646;DHT22;9971;52.446;13.452;2024-01-16T09:25:37;19.30;55.00
19646;DHT22;9971;52.446;13.452;2024-01-16T09:30:39;19.40;53.90
19646;DHT22;9971;52.446;13.452;2024-01-16T09:35:42;19.40;52.20
19646;DHT22;9971;52.446;13.452;2024-01-16T09:40:44;19.40;52.50
19646;DHT22;9971;52.446;13.452;2024-01-16T09:45:46;19.40;52.60
19646;DHT22;9971;52.446;13.452;2024-01-16T09:50:48;19.40;52.00
19646;DHT22;9971;52.446;13.452;2024-01-16T09:55:50;19.40;52.30
19646;DHT22;9971;52.446;13.452;2024-01-16T10:00:53;19.40;52.60
19646;DHT22;9971;52.446;13.452;2024-01-16T10:05:55;19.40;52.70
19646;DHT22;9971;52.446;13.452;2024-01-16T10:10:57;19.40;53.10
19646;DHT22;9971;52.446;13.452;2024-01-16T10:15:59;19.50;53.60
19646;DHT22;9971;52.446;13.452;2024-01-16T10:21:01;19.40;53.00
19646;DHT22;9971;52.446;13.452;2024-01-16T10:26:05;19.50;53.10
19646;DHT22;9971;52.446;13.452;2024-01-16T10:31:07;19.50;53.00
19646;DHT22;9971;52.446;13.452;2024-01-16T10:36:12;19.50;53.30
19646;DHT22;9971;52.446;13.452;2024-01-16T10:41:15;19.50;53.60
19646;DHT22;9971;52.446;13.452;2024-01-16T10:46:16;19.50;52.50
19646;DHT22;9971;52.446;13.452;2024-01-16T10:51:18;19.40;53.20
19646;DHT22;9971;52.446;13.452;2024-01-16T10:56:20;19.40;53.00
19646;DHT22;9971;52.446;13.452;2024-01-16T11:01:22;19.30;53.60
19646;DHT22;9971;52.446;13.452;2024-01-16T11:06:24;19.30;53.40
19646;DHT22;9971;52.446;13.452;2024-01-16T11:11:26;19.30;53.40
19646;DHT22;9971;52.446;13.452;2024-01-16T11:16:28;19.30;53.00
19646;DHT22;9971;52.446;13.452;2024-01-16T11:21:30;19.30;53.70
19646;DHT22;9971;52.446;13.452;2024-01-16T11:26:33;19.30;53.10
19646;DHT22;9971;52.446;13.452;2024-01-16T11:31:35;19.30;52.80
19646;DHT22;9971;52.446;13.452;2024-01-16T11:36:50;19.30;52.90
19646;DHT22;9971;52.446;13.452;2024-01-16T11:41:56;19.20;52.50
19646;DHT22;9971;52.446;13.452;2024-01-16T11:47:00;19.20;53.00
19646;DHT22;9971;52.446;13.452;2024-01-16T11:52:02;19.10;52.80
19646;DHT22;9971;52.446;13.452;2024-01-16T12:02:20;19.00;53.80
19646;DHT22;9971;52.446;13.452;2024-01-16T12:07:21;18.90;53.90
19646;DHT22;9971;52.446;13.452;2024-01-16T12:12:23;18.90;53.10
19646;DHT22;9971;52.446;13.452;2024-01-16T12:17:26;18.70;53.60
19646;DHT22;9971;52.446;13.452;2024-01-16T12:22:28;18.60;54.00
19646;DHT22;9971;52.446;13.452;2024-01-16T12:27:30;18.50;54.60
19646;DHT22;9971;52.446;13.452;2024-01-16T12:32:32;18.40;54.60
19646;DHT22;9971;52.446;13.452;2024-01-16T12:37:35;18.30;54.70
19646;DHT22;9971;52.446;13.452;2024-01-16T12:42:37;18.30;55.40
19646;DHT22;9971;52.446;13.452;2024-01-16T12:47:39;18.20;55.60
19646;DHT22;9971;52.446;13.452;2024-01-16T12:52:42;18.20;55.10
19646;DHT22;9971;52.446;13.452;2024-01-16T12:57:44;18.10;55.30
19646;DHT22;9971;52.446;13.452;2024-01-16T13:02:48;18.10;54.70
19646;DHT22;9971;52.446;13.452;2024-01-16T13:07:59;18.00;55.40
19646;DHT22;9971;52.446;13.452;2024-01-16T13:12:50;17.90;55.50
19646;DHT22;9971;52.446;13.452;2024-01-16T13:17:53;17.80;57.80
19646;DHT22;9971;52.446;13.452;2024-01-16T13:22:55;17.80;56.20
19646;DHT22;9971;52.446;13.452;2024-01-16T13:27:58;17.70;56.50
19646;DHT22;9971;52.446;13.452;2024-01-16T13:33:00;17.60;56.80
19646;DHT22;9971;52.446;13.452;2024-01-16T13:38:02;17.60;57.20
19646;DHT22;9971;52.446;13.452;2024-01-16T13:43:04;17.60;56.10
19646;DHT22;9971;52.446;13.452;2024-01-16T13:48:07;17.50;56.30
19646;DHT22;9971;52.446;13.452;2024-01-16T13:53:09;17.40;56.30
19646;DHT22;9971;52.446;13.452;2024-01-16T13:58:11;17.30;57.00
19646;DHT22;9971;52.446;13.452;2024-01-16T14:03:13;17.20;56.20
19646;DHT22;9971;52.446;13.452;2024-01-16T14:08:16;17.10;56.70
19646;DHT22;9971;52.446;13.452;2024-01-16T14:13:18;17.20;57.40
19646;DHT22;9971;52.446;13.452;2024-01-16T14:18:21;17.20;58.00
19646;DHT22;9971;52.446;13.452;2024-01-16T14:23:23;17.20;57.30
19646;DHT22;9971;52.446;13.452;2024-01-16T14:28:26;17.10;57.50
19646;DHT22;9971;52.446;13.452;2024-01-16T14:33:28;17.00;57.70
19646;DHT22;9971;52.446;13.452;2024-01-16T14:38:30;17.00;58.20
19646;DHT22;9971;52.446;13.452;2024-01-16T14:43:33;17.10;57.60
19646;DHT22;9971;52.446;13.452;2024-01-16T14:48:35;17.10;57.20
19646;DHT22;9971;52.446;13.452;2024-01-16T14:53:38;17.10;56.70
19646;DHT22;9971;52.446;13.452;2024-01-16T14:58:40;17.00;57.20
19646;DHT22;9971;52.446;13.452;2024-01-16T15:03:43;17.00;56.50
19646;DHT22;9971;52.446;13.452;2024-01-16T15:08:45;17.10;57.50
19646;DHT22;9971;52.446;13.452;2024-01-16T15:13:47;13.80;60.10
19646;DHT22;9971;52.446;13.452;2024-01-16T15:18:50;6.70;92.60
19646;DHT22;9971;52.446;13.452;2024-01-16T15:23:52;4.90;99.90
19646;DHT22;9971;52.446;13.452;2024-01-16T15:28:55;4.20;99.90
19646;DHT22;9971;52.446;13.452;2024-01-16T15:33:57;3.80;99.90
19646;DHT22;9971;52.446;13.452;2024-01-16T15:38:59;3.90;99.90
19646;DHT22;9971;52.446;13.452;2024-01-16T15:44:01;4.90;99.90
19646;DHT22;9971;52.446;13.452;2024-01-16T15:49:03;6.10;99.90
19646;DHT22;9971;52.446;13.452;2024-01-16T15:54:06;7.20;99.90
19646;DHT22;9971;52.446;13.452;2024-01-16T15:59:08;8.20;99.90
19646;DHT22;9971;52.446;13.452;2024-01-16T16:04:11;9.00;99.90
19646;DHT22;9971;52.446;13.452;2024-01-16T16:09:13;9.80;99.90
19646;DHT22;9971;52.446;13.452;2024-01-16T16:14:15;10.40;99.90
19646;DHT22;9971;52.446;13.452;2024-01-16T16:19:18;11.00;99.90
19646;DHT22;9971;52.446;13.452;2024-01-16T16:24:20;11.50;99.90
19646;DHT22;9971;52.446;13.452;2024-01-16T16:29:22;11.90;99.90
19646;DHT22;9971;52.446;13.452;2024-01-16T16:34:25;12.40;99.90
19646;DHT22;9971;52.446;13.452;2024-01-16T16:39:27;12.70;99.90
19646;DHT22;9971;52.446;13.452;2024-01-16T16:44:30;13.10;99.90
19646;DHT22;9971;52.446;13.452;2024-01-16T16:49:32;13.40;99.90
19646;DHT22;9971;52.446;13.452;2024-01-16T16:54:35;13.70;99.90
19646;DHT22;9971;52.446;13.452;2024-01-16T16:59:37;14.00;99.90
19646;DHT22;9971;52.446;13.452;2024-01-16T17:04:39;14.30;97.50
19646;DHT22;9971;52.446;13.452;2024-01-16T17:09:42;14.60;94.80
19646;DHT22;9971;52.446;13.452;2024-01-16T17:14:44;14.80;92.70
19646;DHT22;9971;52.446;13.452;2024-01-16T17:19:47;15.00;91.30
19646;DHT22;9971;52.446;13.452;2024-01-16T17:24:49;15.30;90.00
19646;DHT22;9971;52.446;13.452;2024-01-16T17:29:53;15.50;87.20
19646;DHT22;9971;52.446;13.452;2024-01-16T17:34:55;15.70;84.50
19646;DHT22;9971;52.446;13.452;2024-01-16T17:39:58;15.80;81.00
19646;DHT22;9971;52.446;13.452;2024-01-16T17:45:00;16.00;78.80
19646;DHT22;9971;52.446;13.452;2024-01-16T17:50:03;16.10;77.60
19646;DHT22;9971;52.446;13.452;2024-01-16T17:55:05;16.30;75.40
19646;DHT22;9971;52.446;13.452;2024-01-16T18:00:08;16.40;75.40
19646;DHT22;9971;52.446;13.452;2024-01-16T18:05:10;16.60;74.10
19646;DHT22;9971;52.446;13.452;2024-01-16T18:10:13;16.70;72.60
19646;DHT22;9971;52.446;13.452;2024-01-16T18:15:15;16.80;72.30
19646;DHT22;9971;52.446;13.452;2024-01-16T18:20:17;16.90;69.70
19646;DHT22;9971;52.446;13.452;2024-01-16T18:25:19;17.00;68.20
19646;DHT22;9971;52.446;13.452;2024-01-16T18:30:22;17.10;66.70
19646;DHT22;9971;52.446;13.452;2024-01-16T18:35:24;17.20;65.80
19646;DHT22;9971;52.446;13.452;2024-01-16T18:40:26;17.20;65.50
19646;DHT22;9971;52.446;13.452;2024-01-16T18:45:29;17.30;64.40
19646;DHT22;9971;52.446;13.452;2024-01-16T18:50:31;17.30;63.40
19646;DHT22;9971;52.446;13.452;2024-01-16T18:55:34;17.40;62.80
19646;DHT22;9971;52.446;13.452;2024-01-16T19:00:35;17.40;61.80
19646;DHT22;9971;52.446;13.452;2024-01-16T19:05:37;17.40;62.80
19646;DHT22;9971;52.446;13.452;2024-01-16T19:10:40;17.40;61.30
19646;DHT22;9971;52.446;13.452;2024-01-16T19:15:42;17.40;62.70
19646;DHT22;9971;52.446;13.452;2024-01-16T19:20:44;17.50;62.60
19646;DHT22;9971;52.446;13.452;2024-01-16T19:25:47;17.60;59.60
19646;DHT22;9971;52.446;13.452;2024-01-16T19:30:49;17.60;61.00
19646;DHT22;9971;52.446;13.452;2024-01-16T19:35:51;17.60;61.30
19646;DHT22;9971;52.446;13.452;2024-01-16T19:40:54;17.60;59.40
19646;DHT22;9971;52.446;13.452;2024-01-16T19:45:56;17.70;59.90
19646;DHT22;9971;52.446;13.452;2024-01-16T19:50:59;17.60;60.10
19646;DHT22;9971;52.446;13.452;2024-01-16T19:56:01;17.60;59.50
19646;DHT22;9971;52.446;13.452;2024-01-16T20:01:03;17.60;59.90
19646;DHT22;9971;52.446;13.452;2024-01-16T20:06:05;17.60;59.00
19646;DHT22;9971;52.446;13.452;2024-01-16T20:11:08;17.60;59.50
19646;DHT22;9971;52.446;13.452;2024-01-16T20:16:10;17.70;59.20
19646;DHT22;9971;52.446;13.452;2024-01-16T20:21:12;17.80;58.90
19646;DHT22;9971;52.446;13.452;2024-01-16T20:26:15;17.80;58.50
19646;DHT22;9971;52.446;13.452;2024-01-16T20:31:17;17.80;58.20
19646;DHT22;9971;52.446;13.452;2024-01-16T20:36:19;17.90;58.10
19646;DHT22;9971;52.446;13.452;2024-01-16T20:41:21;17.90;57.60
19646;DHT22;9971;52.446;13.452;2024-01-16T20:46:24;17.90;58.30
19646;DHT22;9971;52.446;13.452;2024-01-16T20:51:26;18.00;57.10
19646;DHT22;9971;52.446;13.452;2024-01-16T20:56:28;18.00;57.90
19646;DHT22;9971;52.446;13.452;2024-01-16T21:01:30;18.10;57.00
19646;DHT22;9971;52.446;13.452;2024-01-16T21:06:33;18.10;57.50
19646;DHT22;9971;52.446;13.452;2024-01-16T21:11:35;18.20;57.10
19646;DHT22;9971;52.446;13.452;2024-01-16T21:16:38;18.30;56.70
19646;DHT22;9971;52.446;13.452;2024-01-16T21:21:41;18.30;56.30
19646;DHT22;9971;52.446;13.452;2024-01-16T21:26:44;18.40;56.10
19646;DHT22;9971;52.446;13.452;2024-01-16T21:31:46;18.40;55.90
19646;DHT22;9971;52.446;13.452;2024-01-16T21:36:49;18.50;56.60
19646;DHT22;9971;52.446;13.452;2024-01-16T21:41:50;18.60;56.20
19646;DHT22;9971;52.446;13.452;2024-01-16T21:46:53;18.60;55.70
19646;DHT22;9971;52.446;13.452;2024-01-16T21:51:55;18.70;55.50
19646;DHT22;9971;52.446;13.452;2024-01-16T21:56:57;18.70;55.10
19646;DHT22;9971;52.446;13.452;2024-01-16T22:01:59;18.80;55.20
19646;DHT22;9971;52.446;13.452;2024-01-16T22:07:01;18.80;55.50
19646;DHT22;9971;52.446;13.452;2024-01-16T22:12:04;18.80;54.50
19646;DHT22;9971;52.446;13.452;2024-01-16T22:17:07;18.90;55.50
19646;DHT22;9971;52.446;13.452;2024-01-16T22:22:09;18.90;54.50
19646;DHT22;9971;52.446;13.452;2024-01-16T22:27:11;18.90;54.10
19646;DHT22;9971;52.446;13.452;2024-01-16T22:32:13;18.90;53.80
19646;DHT22;9971;52.446;13.452;2024-01-16T22:37:16;19.00;52.90
19646;DHT22;9971;52.446;13.452;2024-01-16T22:42:18;19.00;52.30
19646;DHT22;9971;52.446;13.452;2024-01-16T22:47:21;19.00;53.70
19646;DHT22;9971;52.446;13.452;2024-01-16T22:52:23;16.30;52.10
19646;DHT22;9971;52.446;13.452;2024-01-16T22:57:25;6.30;81.70
19646;DHT22;9971;52.446;13.452;2024-01-16T23:02:28;4.70;99.90
19646;DHT22;9971;52.446;13.452;2024-01-16T23:07:30;5.90;99.90
19646;DHT22;9971;52.446;13.452;2024-01-16T23:12:33;7.20;99.90
19646;DHT22;9971;52.446;13.452;2024-01-16T23:17:36;8.50;99.90
19646;DHT22;9971;52.446;13.452;2024-01-16T23:22:39;9.50;99.90
19646;DHT22;9971;52.446;13.452;2024-01-16T23:27:41;10.40;99.90
19646;DHT22;9971;52.446;13.452;2024-01-16T23:32:43;11.10;99.90
19646;DHT22;9971;52.446;13.452;2024-01-16T23:37:45;11.80;97.00
19646;DHT22;9971;52.446;13.452;2024-01-16T23:42:48;12.40;92.80
19646;DHT22;9971;52.446;13.452;2024-01-16T23:47:50;12.90;90.60
19646;DHT22;9971;52.446;13.452;2024-01-16T23:52:52;13.30;87.80
19646;DHT22;9971;52.446;13.452;2024-01-16T23:57:55;13.70;82.90
